createdAt,value
2022-07-26T00:00:26.048Z,6.70
2022-07-26T00:01:32.192Z,7.50
2022-07-26T00:02:27.174Z,5.70
2022-07-26T00:03:26.012Z,9.50
2022-07-26T00:04:26.085Z,5.00
2022-07-26T00:05:26.022Z,8.50
2022-07-26T00:06:26.021Z,8.70
2022-07-26T00:07:26.006Z,8.20
2022-07-26T00:08:26.045Z,10.50
2022-07-26T00:09:26.011Z,9.00
2022-07-26T00:10:25.976Z,6.90
2022-07-26T00:11:26.117Z,8.90
2022-07-26T00:12:25.974Z,8.70
2022-07-26T00:13:28.922Z,9.90
2022-07-26T00:14:26.030Z,8.90
2022-07-26T00:15:25.976Z,6.30
2022-07-26T00:16:26.003Z,9.80
2022-07-26T00:17:25.912Z,8.50
2022-07-26T00:18:26.038Z,6.90
2022-07-26T00:19:25.933Z,7.70
2022-07-26T00:20:27.695Z,7.90
2022-07-26T00:21:26.900Z,9.00
2022-07-26T00:22:25.926Z,9.10
2022-07-26T00:23:25.874Z,7.80
2022-07-26T00:24:26.043Z,9.30
2022-07-26T00:25:25.920Z,14.00
2022-07-26T00:26:25.892Z,7.00
2022-07-26T00:27:25.862Z,8.30
2022-07-26T00:28:25.863Z,8.50
2022-07-26T00:29:25.830Z,8.50
2022-07-26T00:30:25.839Z,6.70
2022-07-26T00:31:25.896Z,15.00
2022-07-26T00:32:25.833Z,7.90
2022-07-26T00:33:25.786Z,7.50
2022-07-26T00:34:25.943Z,9.80
2022-07-26T00:35:25.845Z,9.30
2022-07-26T00:36:25.795Z,8.30
2022-07-26T00:37:25.891Z,10.00
2022-07-26T00:38:25.753Z,13.90
2022-07-26T00:39:26.466Z,11.70
2022-07-26T00:40:26.406Z,8.10
2022-07-26T00:41:25.745Z,7.40
2022-07-26T00:42:25.846Z,7.70
2022-07-26T00:43:25.773Z,9.00
2022-07-26T00:44:25.742Z,7.70
2022-07-26T00:45:25.712Z,9.70
2022-07-26T00:46:25.754Z,9.60
2022-07-26T00:47:25.692Z,9.30
2022-07-26T00:48:25.701Z,10.30
2022-07-26T00:49:25.761Z,8.30
2022-07-26T00:50:26.251Z,11.20
2022-07-26T00:51:25.694Z,10.60
2022-07-26T00:52:26.257Z,9.60
2022-07-26T00:53:25.670Z,11.70
2022-07-26T00:54:25.683Z,8.90
2022-07-26T00:55:25.672Z,14.50
2022-07-26T00:56:25.649Z,14.90
2022-07-26T00:57:26.386Z,12.70
2022-07-26T00:58:25.622Z,10.00
2022-07-26T00:59:25.596Z,10.50
2022-07-26T01:00:25.598Z,11.40
2022-07-26T01:01:25.697Z,12.70
2022-07-26T01:02:25.624Z,11.70
2022-07-26T01:03:29.250Z,14.40
2022-07-26T01:04:27.326Z,12.20
2022-07-26T01:05:25.563Z,11.10
2022-07-26T01:06:27.511Z,12.40
2022-07-26T01:07:27.248Z,10.50
2022-07-26T01:08:25.562Z,10.00
2022-07-26T01:09:25.549Z,9.40
2022-07-26T01:10:25.528Z,10.10
2022-07-26T01:11:25.542Z,9.00
2022-07-26T01:12:25.516Z,14.80
2022-07-26T01:13:25.586Z,15.70
2022-07-26T01:14:25.492Z,14.10
2022-07-26T01:15:25.498Z,12.90
2022-07-26T01:16:25.518Z,13.40
2022-07-26T01:17:25.489Z,9.90
2022-07-26T01:18:25.484Z,12.50
2022-07-26T01:19:25.489Z,12.80
2022-07-26T01:20:25.453Z,13.40
2022-07-26T01:21:25.462Z,12.50
2022-07-26T01:22:25.443Z,13.10
2022-07-26T01:23:26.258Z,25.50
2022-07-26T01:24:26.259Z,14.30
2022-07-26T01:25:25.430Z,13.20
2022-07-26T01:26:25.895Z,14.20
2022-07-26T01:27:25.393Z,13.00
2022-07-26T01:28:25.424Z,13.60
2022-07-26T01:29:35.974Z,13.10
2022-07-26T01:30:26.385Z,15.30
2022-07-26T01:31:25.451Z,10.10
2022-07-26T01:32:25.359Z,13.90
2022-07-26T01:33:25.351Z,12.40
2022-07-26T01:34:25.362Z,12.70
2022-07-26T01:35:26.344Z,9.30
2022-07-26T01:36:25.586Z,9.70
2022-07-26T01:37:25.316Z,9.80
2022-07-26T01:38:25.317Z,7.90
2022-07-26T01:39:25.325Z,8.60
2022-07-26T01:40:25.310Z,13.40
2022-07-26T01:41:37.448Z,9.80
2022-07-26T01:42:26.288Z,9.40
2022-07-26T01:43:25.273Z,8.70
2022-07-26T01:44:25.279Z,10.00
2022-07-26T02:02:44.987Z,6.90
2022-07-26T02:03:44.830Z,11.30
2022-07-26T02:04:44.818Z,10.50
2022-07-26T02:05:44.802Z,13.40
2022-07-26T02:06:46.506Z,11.90
2022-07-26T02:07:45.927Z,10.70
2022-07-26T02:08:45.933Z,14.80
2022-07-26T02:09:45.898Z,13.10
2022-07-26T02:10:45.883Z,12.40
2022-07-26T02:11:45.888Z,14.50
2022-07-26T02:12:45.891Z,14.50
2022-07-26T02:13:48.834Z,11.50
2022-07-26T02:14:46.851Z,11.10
2022-07-26T02:15:45.951Z,9.40
2022-07-26T02:16:45.994Z,13.80
2022-07-26T02:17:45.863Z,14.00
2022-07-26T02:18:45.881Z,12.80
2022-07-26T02:19:45.824Z,12.00
2022-07-26T02:20:45.831Z,9.60
2022-07-26T02:21:45.797Z,16.00
2022-07-26T02:22:45.861Z,12.30
2022-07-26T02:23:45.809Z,13.10
2022-07-26T02:24:45.861Z,19.50
2022-07-26T02:25:45.786Z,13.60
2022-07-26T02:26:45.940Z,17.50
2022-07-26T02:27:45.827Z,19.50
2022-07-26T02:28:46.537Z,17.50
2022-07-26T02:29:45.789Z,16.00
2022-07-26T02:30:45.818Z,13.60
2022-07-26T02:31:48.207Z,17.90
2022-07-26T02:32:45.730Z,17.40
2022-07-26T02:33:45.738Z,18.60
2022-07-26T02:34:45.712Z,17.60
2022-07-26T02:35:45.741Z,15.10
2022-07-26T02:36:45.695Z,13.50
2022-07-26T02:37:45.767Z,16.00
2022-07-26T02:38:45.685Z,16.20
2022-07-26T02:39:45.701Z,16.70
2022-07-26T02:40:45.645Z,18.80
2022-07-26T02:41:45.670Z,13.20
2022-07-26T02:42:46.540Z,13.50
2022-07-26T02:43:45.648Z,13.00
2022-07-26T02:44:45.666Z,9.70
2022-07-26T02:45:45.622Z,11.90
2022-07-26T02:46:46.750Z,9.30
2022-07-26T02:47:46.553Z,10.40
2022-07-26T02:48:45.647Z,9.10
2022-07-26T02:49:45.588Z,11.50
2022-07-26T02:50:47.385Z,11.30
2022-07-26T02:52:17.507Z,8.90
2022-07-26T02:52:46.483Z,14.10
2022-07-26T02:53:46.521Z,12.20
2022-07-26T02:54:46.490Z,11.50
2022-07-26T02:55:45.623Z,12.00
2022-07-26T02:56:45.612Z,9.70
2022-07-26T02:57:46.229Z,13.00
2022-07-26T02:58:45.529Z,10.50
2022-07-26T02:59:45.537Z,10.10
2022-07-26T03:00:45.510Z,17.90
2022-07-26T03:01:45.545Z,14.60
2022-07-26T03:02:45.553Z,12.70
2022-07-26T03:03:50.383Z,12.60
2022-07-26T03:04:47.513Z,16.90
2022-07-26T03:05:45.457Z,14.00
2022-07-26T03:06:45.476Z,14.90
2022-07-26T03:07:45.547Z,15.30
2022-07-26T03:08:45.454Z,15.60
2022-07-26T03:09:45.479Z,17.30
2022-07-26T03:10:45.430Z,13.80
2022-07-26T03:11:45.462Z,11.70
2022-07-26T03:12:45.402Z,14.10
2022-07-26T03:13:45.433Z,11.30
2022-07-26T03:14:45.386Z,10.50
2022-07-26T03:15:45.425Z,10.90
2022-07-26T03:16:45.489Z,8.40
2022-07-26T03:17:45.380Z,11.70
2022-07-26T03:18:45.406Z,11.70
2022-07-26T03:19:45.371Z,11.70
2022-07-26T03:20:45.373Z,7.80
2022-07-26T03:21:45.402Z,10.00
2022-07-26T03:22:45.349Z,12.50
2022-07-26T03:23:45.362Z,10.10
2022-07-26T03:24:45.326Z,13.30
2022-07-26T03:25:45.339Z,8.60
2022-07-26T03:26:45.449Z,14.70
2022-07-26T03:27:45.308Z,11.30
2022-07-26T03:28:45.294Z,11.90
2022-07-26T03:29:45.292Z,10.80
2022-07-26T03:30:45.322Z,8.70
2022-07-26T03:31:45.330Z,8.80
2022-07-26T03:32:45.279Z,13.50
2022-07-26T03:33:45.321Z,10.00
2022-07-26T03:34:45.250Z,12.10
2022-07-26T03:35:45.256Z,14.80
2022-07-26T03:36:45.301Z,13.00
2022-07-26T03:37:45.903Z,14.60
2022-07-26T03:38:45.275Z,10.60
2022-07-26T03:39:45.291Z,13.40
2022-07-26T03:40:45.237Z,12.30
2022-07-26T03:41:45.201Z,12.70
2022-07-26T03:42:45.385Z,11.90
2022-07-26T03:43:46.007Z,8.90
2022-07-26T03:44:45.179Z,13.00
2022-07-26T03:45:46.189Z,15.60
2022-07-26T04:01:42.458Z,12.20
2022-07-26T04:02:42.371Z,13.10
2022-07-26T04:03:47.600Z,11.60
2022-07-26T04:04:45.386Z,10.80
2022-07-26T04:05:49.098Z,10.50
2022-07-26T04:06:44.449Z,9.70
2022-07-26T04:07:52.822Z,9.90
2022-07-26T04:08:44.990Z,8.40
2022-07-26T04:09:43.409Z,9.90
2022-07-26T04:10:43.372Z,9.80
2022-07-26T04:11:43.344Z,8.90
2022-07-26T04:12:43.988Z,14.60
2022-07-26T04:13:43.413Z,14.70
2022-07-26T04:14:43.394Z,11.90
2022-07-26T04:15:43.346Z,10.40
2022-07-26T04:16:43.969Z,8.40
2022-07-26T04:17:44.354Z,11.40
2022-07-26T04:18:43.348Z,9.40
2022-07-26T04:19:43.299Z,11.40
2022-07-26T04:20:43.288Z,8.30
2022-07-26T04:21:43.995Z,12.70
2022-07-26T04:22:43.338Z,10.80
2022-07-26T04:23:47.766Z,10.10
2022-07-26T04:24:44.281Z,11.20
2022-07-26T04:25:43.286Z,9.90
2022-07-26T04:26:43.261Z,10.00
2022-07-26T04:27:43.379Z,11.80
2022-07-26T04:28:43.249Z,13.20
2022-07-26T04:29:43.288Z,14.40
2022-07-26T04:30:44.881Z,13.20
2022-07-26T04:31:43.269Z,15.20
2022-07-26T04:32:43.218Z,13.40
2022-07-26T04:33:44.211Z,11.50
2022-07-26T04:34:44.014Z,13.70
2022-07-26T04:35:43.284Z,13.90
2022-07-26T04:36:43.209Z,10.50
2022-07-26T04:37:43.178Z,10.70
2022-07-26T04:38:43.165Z,10.20
2022-07-26T04:39:43.148Z,10.90
2022-07-26T04:40:43.181Z,9.00
2022-07-26T04:41:43.205Z,16.10
2022-07-26T04:42:43.135Z,13.90
2022-07-26T04:43:43.167Z,11.60
2022-07-26T04:44:44.006Z,12.90
2022-07-26T04:45:43.207Z,10.80
2022-07-26T04:46:45.225Z,13.30
2022-07-26T04:47:43.110Z,12.00
2022-07-26T04:48:43.247Z,7.70
2022-07-26T04:49:43.130Z,15.50
2022-07-26T04:50:43.111Z,9.20
2022-07-26T04:51:43.090Z,12.30
2022-07-26T04:52:43.036Z,9.50
2022-07-26T04:53:43.038Z,9.30
2022-07-26T04:54:43.008Z,10.80
2022-07-26T04:55:43.033Z,11.70
2022-07-26T04:56:43.027Z,9.40
2022-07-26T04:57:42.993Z,10.90
2022-07-26T04:58:42.991Z,8.80
2022-07-26T04:59:43.989Z,9.20
2022-07-26T05:01:08.506Z,8.80
2022-07-26T05:01:45.034Z,11.20
2022-07-26T05:02:43.002Z,7.30
2022-07-26T05:03:42.979Z,6.50
2022-07-26T05:04:42.942Z,10.40
2022-07-26T05:05:42.965Z,12.20
2022-07-26T05:06:42.985Z,9.80
2022-07-26T05:07:42.952Z,7.60
2022-07-26T05:08:42.951Z,11.60
2022-07-26T05:09:43.079Z,9.60
2022-07-26T05:10:44.966Z,10.30
2022-07-26T05:11:43.907Z,9.10
2022-07-26T05:12:42.952Z,9.40
2022-07-26T05:13:42.891Z,11.00
2022-07-26T05:14:42.893Z,9.60
2022-07-26T05:15:42.985Z,11.00
2022-07-26T05:16:44.393Z,9.60
2022-07-26T05:17:42.955Z,11.20
2022-07-26T05:18:45.863Z,11.90
2022-07-26T05:19:48.847Z,6.50
2022-07-26T05:20:44.932Z,9.50
2022-07-26T05:21:42.835Z,8.10
2022-07-26T05:22:42.831Z,11.80
2022-07-26T05:23:42.824Z,5.90
2022-07-26T05:24:42.798Z,9.60
2022-07-26T05:25:42.789Z,7.70
2022-07-26T05:26:42.801Z,7.50
2022-07-26T05:27:42.769Z,11.80
2022-07-26T05:28:43.042Z,6.10
2022-07-26T05:29:42.752Z,9.40
2022-07-26T05:30:42.781Z,9.50
2022-07-26T05:31:42.752Z,6.00
2022-07-26T05:32:42.839Z,7.40
2022-07-26T05:33:42.723Z,8.30
2022-07-26T05:34:42.730Z,6.70
2022-07-26T05:35:43.408Z,7.90
2022-07-26T05:36:43.409Z,8.20
2022-07-26T05:37:43.410Z,5.80
2022-07-26T05:38:42.741Z,7.90
2022-07-26T05:39:42.660Z,8.70
2022-07-26T05:40:45.970Z,9.90
2022-07-26T05:41:43.650Z,9.30
2022-07-26T05:42:42.644Z,8.20
2022-07-26T05:43:42.639Z,10.00
2022-07-26T05:44:42.950Z,9.60
2022-07-26T05:45:42.693Z,5.90
2022-07-26T05:46:42.621Z,6.50
2022-07-26T05:47:42.617Z,8.10
2022-07-26T05:48:42.668Z,6.70
2022-07-26T05:49:42.616Z,5.30
2022-07-26T05:50:42.760Z,5.80
2022-07-26T05:51:42.676Z,7.30
2022-07-26T05:52:42.578Z,11.50
2022-07-26T05:53:42.586Z,6.00
2022-07-26T05:54:42.727Z,5.30
2022-07-26T05:55:42.570Z,5.00
2022-07-26T05:56:42.566Z,5.40
2022-07-26T05:57:43.416Z,7.20
2022-07-26T05:58:42.564Z,6.90
2022-07-26T05:59:42.551Z,6.70
2022-07-26T06:00:48.291Z,5.70
2022-07-26T06:01:44.563Z,5.50
2022-07-26T06:02:42.560Z,5.10
2022-07-26T06:03:42.498Z,7.30
2022-07-26T06:04:44.488Z,4.60
2022-07-26T06:05:43.524Z,4.30
2022-07-26T06:06:43.415Z,6.20
2022-07-26T06:07:42.559Z,12.40
2022-07-26T06:08:42.489Z,6.80
2022-07-26T06:09:42.542Z,7.10
2022-07-26T06:10:42.501Z,5.10
2022-07-26T06:11:42.532Z,10.60
2022-07-26T06:12:42.422Z,5.30
2022-07-26T06:13:43.152Z,5.00
2022-07-26T06:14:43.414Z,7.10
2022-07-26T06:15:42.410Z,8.40
2022-07-26T06:16:42.463Z,8.50
2022-07-26T06:17:42.464Z,4.80
2022-07-26T06:18:42.925Z,5.60
2022-07-26T06:19:47.352Z,5.50
2022-07-26T06:20:44.372Z,7.10
2022-07-26T06:21:42.949Z,3.60
2022-07-26T06:22:42.377Z,6.70
2022-07-26T06:23:42.361Z,7.00
2022-07-26T06:24:42.327Z,6.50
2022-07-26T06:25:42.937Z,5.30
2022-07-26T06:26:42.950Z,6.00
2022-07-26T06:27:42.359Z,4.30
2022-07-26T06:28:42.330Z,7.10
2022-07-26T06:29:43.012Z,5.40
2022-07-26T06:30:43.284Z,7.80
2022-07-26T06:31:42.345Z,5.80
2022-07-26T06:32:42.315Z,5.40
2022-07-26T06:33:42.293Z,9.70
2022-07-26T06:34:42.249Z,6.70
2022-07-26T06:35:42.268Z,8.80
2022-07-26T06:36:42.257Z,7.50
2022-07-26T06:37:42.307Z,6.70
2022-07-26T06:38:42.370Z,4.50
2022-07-26T06:39:42.426Z,4.50
2022-07-26T06:40:43.124Z,6.20
2022-07-26T06:41:42.222Z,6.10
2022-07-26T06:42:42.215Z,4.70
2022-07-26T06:43:42.195Z,6.30
2022-07-26T06:44:42.268Z,5.30
2022-07-26T06:45:42.257Z,6.20
2022-07-26T06:46:42.315Z,9.50
2022-07-26T06:47:42.170Z,5.20
2022-07-26T06:48:42.189Z,8.40
2022-07-26T06:49:43.209Z,7.00
2022-07-26T06:50:43.091Z,5.20
2022-07-26T06:51:42.143Z,4.00
2022-07-26T06:52:42.155Z,4.30
2022-07-26T06:53:43.148Z,5.50
2022-07-26T06:54:42.215Z,4.80
2022-07-26T06:55:42.664Z,4.20
2022-07-26T06:56:42.142Z,5.30
2022-07-26T06:57:49.587Z,6.70
2022-07-26T06:58:43.121Z,5.40
2022-07-26T06:59:42.116Z,5.40
2022-07-26T07:00:42.179Z,7.60
2022-07-26T07:01:59.644Z,5.70
2022-07-26T07:02:43.059Z,6.00
2022-07-26T07:03:42.060Z,4.50
2022-07-26T07:04:42.138Z,6.20
2022-07-26T07:05:45.324Z,3.30
2022-07-26T07:06:43.062Z,7.40
2022-07-26T07:07:42.200Z,7.20
2022-07-26T07:08:42.034Z,5.20
2022-07-26T07:09:42.043Z,5.60
2022-07-26T07:10:42.037Z,5.80
2022-07-26T07:11:42.021Z,5.90
2022-07-26T07:12:42.046Z,4.20
2022-07-26T07:13:42.009Z,4.50
2022-07-26T07:14:41.963Z,7.60
2022-07-26T07:15:43.009Z,5.80
2022-07-26T07:16:42.052Z,4.50
2022-07-26T07:17:42.028Z,6.30
2022-07-26T07:18:42.591Z,5.70
2022-07-26T07:19:41.989Z,4.50
2022-07-26T07:20:41.980Z,2.80
2022-07-26T07:21:41.963Z,5.60
2022-07-26T07:22:41.930Z,5.50
2022-07-26T07:23:41.896Z,6.10
2022-07-26T07:24:41.981Z,5.20
2022-07-26T07:25:41.943Z,4.80
2022-07-26T07:26:41.931Z,4.70
2022-07-26T07:27:41.944Z,5.60
2022-07-26T07:28:41.891Z,3.90
2022-07-26T07:29:42.146Z,3.30
2022-07-26T07:30:41.865Z,7.10
2022-07-26T07:31:47.990Z,5.40
2022-07-26T07:32:42.911Z,3.80
2022-07-26T07:33:52.551Z,5.20
2022-07-26T07:34:42.838Z,6.40
2022-07-26T07:35:41.835Z,6.40
2022-07-26T07:36:41.855Z,5.10
2022-07-26T07:37:52.529Z,4.40
2022-07-26T07:38:43.006Z,2.80
2022-07-26T07:39:41.802Z,5.50
2022-07-26T07:40:41.795Z,3.90
2022-07-26T07:41:41.815Z,7.50
2022-07-26T07:42:41.780Z,5.10
2022-07-26T07:43:41.822Z,3.70
2022-07-26T07:44:42.780Z,3.50
2022-07-26T07:45:41.900Z,4.60
2022-07-26T07:46:41.811Z,4.80
2022-07-26T07:47:41.815Z,5.20
2022-07-26T07:48:47.049Z,4.00
2022-07-26T07:49:43.864Z,4.20
2022-07-26T07:50:41.745Z,5.60
2022-07-26T07:51:41.716Z,4.70
2022-07-26T07:52:41.835Z,3.40
2022-07-26T07:53:41.694Z,7.90
2022-07-26T07:54:42.306Z,4.80
2022-07-26T07:55:44.072Z,7.50
2022-07-26T07:56:43.703Z,5.50
2022-07-26T07:57:41.691Z,3.60
2022-07-26T07:58:42.586Z,5.70
2022-07-26T07:59:41.685Z,3.10
2022-07-26T08:00:41.723Z,5.00
2022-07-26T08:01:41.705Z,3.60
2022-07-26T08:02:41.660Z,5.70
2022-07-26T08:03:41.716Z,5.90
2022-07-26T08:04:41.697Z,3.90
2022-07-26T08:05:41.684Z,7.60
2022-07-26T08:06:41.678Z,4.10
2022-07-26T08:07:41.634Z,4.70
2022-07-26T08:08:41.620Z,4.50
2022-07-26T08:09:43.028Z,6.20
2022-07-26T08:10:43.583Z,5.40
2022-07-26T08:11:42.890Z,6.10
2022-07-26T08:12:41.789Z,4.90
2022-07-26T08:13:45.791Z,6.00
2022-07-26T08:14:43.573Z,3.40
2022-07-26T08:15:41.536Z,3.40
2022-07-26T08:16:41.714Z,6.50
2022-07-26T08:17:41.936Z,4.00
2022-07-26T08:18:55.658Z,4.70
2022-07-26T08:19:43.515Z,7.60
2022-07-26T08:20:41.503Z,3.40
2022-07-26T08:21:41.705Z,2.80
2022-07-26T08:22:42.517Z,2.70
2022-07-26T08:23:41.493Z,2.60
2022-07-26T08:24:41.479Z,5.00
2022-07-26T08:25:55.164Z,3.30
2022-07-26T08:26:45.651Z,5.30
2022-07-26T08:27:42.144Z,3.00
2022-07-26T08:28:58.524Z,4.20
2022-07-26T08:29:43.442Z,3.60
2022-07-26T08:30:41.510Z,3.90
2022-07-26T08:31:41.470Z,4.80
2022-07-26T08:32:41.476Z,3.40
2022-07-26T08:33:46.447Z,4.10
2022-07-26T08:34:42.430Z,5.90
2022-07-26T08:35:41.415Z,6.60
2022-07-26T08:36:54.756Z,4.50
2022-07-26T08:37:43.412Z,4.40
2022-07-26T08:38:41.522Z,4.20
2022-07-26T08:39:41.397Z,5.40
2022-07-26T08:40:41.427Z,3.80
2022-07-26T08:41:41.412Z,4.70
2022-07-26T08:42:41.390Z,4.90
2022-07-26T08:43:51.378Z,4.50
2022-07-26T08:44:42.360Z,6.30
2022-07-26T08:45:41.497Z,3.50
2022-07-26T08:46:41.359Z,4.90
2022-07-26T08:48:00.727Z,5.30
2022-07-26T08:48:43.418Z,5.10
2022-07-26T08:49:41.301Z,7.30
2022-07-26T08:50:41.497Z,4.10
2022-07-26T08:51:41.340Z,5.80
2022-07-26T08:52:41.356Z,7.10
2022-07-26T08:53:41.285Z,5.10
2022-07-26T08:54:42.036Z,7.30
2022-07-26T08:56:43.287Z,4.60
2022-07-26T08:57:42.193Z,4.80
2022-07-26T08:58:41.246Z,5.00
2022-07-26T08:59:41.727Z,6.20
2022-07-26T09:00:41.370Z,7.10
2022-07-26T09:01:41.313Z,4.50
2022-07-26T09:02:41.236Z,5.60
2022-07-26T09:03:41.289Z,4.00
2022-07-26T09:04:44.481Z,5.30
2022-07-26T09:05:43.028Z,6.20
2022-07-26T09:06:41.240Z,4.70
2022-07-26T09:07:41.308Z,3.70
2022-07-26T09:08:42.094Z,4.40
2022-07-26T09:09:41.171Z,3.90
2022-07-26T09:10:41.956Z,5.00
2022-07-26T09:11:41.173Z,4.90
2022-07-26T09:12:41.164Z,4.30
2022-07-26T09:13:41.156Z,4.40
2022-07-26T09:14:41.127Z,5.80
2022-07-26T09:15:41.153Z,5.70
2022-07-26T09:16:41.185Z,4.60
2022-07-26T09:17:41.151Z,4.10
2022-07-26T09:18:41.150Z,3.70
2022-07-26T09:19:41.100Z,4.40
2022-07-26T09:20:41.340Z,3.20
2022-07-26T09:21:41.082Z,6.80
2022-07-26T09:22:42.037Z,3.10
2022-07-26T09:23:41.063Z,3.70
2022-07-26T09:24:41.530Z,7.30
2022-07-26T09:25:41.049Z,6.30
2022-07-26T09:26:41.038Z,5.90
2022-07-26T09:27:42.034Z,4.20
2022-07-26T09:28:44.991Z,3.50
2022-07-26T09:29:41.027Z,6.40
2022-07-26T09:30:41.947Z,4.20
2022-07-26T09:31:41.174Z,4.90
2022-07-26T09:32:41.049Z,6.70
2022-07-26T09:33:40.998Z,4.80
2022-07-26T09:34:51.877Z,4.30
2022-07-26T09:35:49.917Z,3.50
2022-07-26T09:36:42.981Z,4.00
2022-07-26T09:37:40.995Z,5.20
2022-07-26T09:38:41.094Z,5.70
2022-07-26T09:39:41.002Z,3.60
2022-07-26T09:40:41.931Z,5.80
2022-07-26T09:41:41.942Z,5.40
2022-07-26T09:42:40.976Z,4.50
2022-07-26T09:43:41.178Z,6.00
2022-07-26T09:44:47.716Z,3.20
2022-07-26T09:45:41.937Z,5.00
2022-07-26T09:46:40.956Z,6.40
2022-07-26T09:47:40.956Z,5.60
2022-07-26T09:49:08.295Z,5.00
2022-07-26T09:49:43.025Z,5.30
2022-07-26T09:50:40.915Z,5.00
2022-07-26T09:51:40.971Z,4.80
2022-07-26T09:52:40.880Z,5.40
2022-07-26T09:53:40.850Z,6.70
2022-07-26T09:54:40.836Z,6.10
2022-07-26T09:55:44.852Z,5.50
2022-07-26T09:56:41.961Z,4.00
2022-07-26T09:57:40.853Z,8.20
2022-07-26T09:58:40.825Z,7.40
2022-07-26T09:59:40.834Z,9.10
2022-07-26T10:00:40.803Z,6.40
2022-07-26T10:01:40.890Z,5.80
2022-07-26T10:02:40.850Z,3.30
2022-07-26T10:03:40.797Z,5.80
2022-07-26T10:04:40.840Z,8.10
2022-07-26T10:05:40.777Z,6.10
2022-07-26T10:06:41.025Z,5.20
2022-07-26T10:07:40.758Z,4.60
2022-07-26T10:08:40.797Z,6.50
2022-07-26T10:09:41.673Z,4.70
2022-07-26T10:10:41.738Z,5.60
2022-07-26T10:11:40.838Z,4.70
2022-07-26T10:12:41.842Z,4.90
2022-07-26T10:13:40.705Z,3.30
2022-07-26T10:14:40.710Z,3.80
2022-07-26T10:15:40.749Z,3.70
2022-07-26T10:16:40.661Z,7.20
2022-07-26T10:17:40.971Z,5.50
2022-07-26T10:18:40.818Z,5.60
2022-07-26T10:19:45.592Z,8.20
2022-07-26T10:20:42.867Z,4.00
2022-07-26T10:21:40.643Z,4.70
2022-07-26T10:22:40.670Z,4.70
2022-07-26T10:23:40.607Z,5.80
2022-07-26T10:24:40.605Z,7.00
2022-07-26T10:25:40.624Z,3.20
2022-07-26T10:26:40.611Z,4.10
2022-07-26T10:27:40.675Z,3.60
2022-07-26T10:28:40.594Z,3.70
2022-07-26T10:29:40.620Z,3.50
2022-07-26T10:30:41.539Z,3.20
2022-07-26T10:31:40.724Z,4.10
2022-07-26T10:32:40.587Z,3.30
2022-07-26T10:33:40.555Z,5.20
2022-07-26T10:34:40.563Z,4.60
2022-07-26T10:35:40.673Z,6.30
2022-07-26T10:36:41.143Z,3.70
2022-07-26T10:37:40.519Z,5.10
2022-07-26T10:38:40.567Z,3.30
2022-07-26T10:39:40.561Z,3.10
2022-07-26T10:40:40.529Z,5.00
2022-07-26T10:41:41.160Z,3.50
2022-07-26T10:42:40.575Z,5.50
2022-07-26T10:43:41.745Z,3.00
2022-07-26T10:44:41.469Z,5.10
2022-07-26T10:45:40.504Z,4.50
2022-07-26T10:46:40.757Z,4.50
2022-07-26T10:47:40.437Z,8.10
2022-07-26T10:48:40.503Z,2.80
2022-07-26T10:49:40.430Z,4.80
2022-07-26T10:50:40.430Z,2.50
2022-07-26T10:52:12.332Z,3.80
2022-07-26T10:52:40.387Z,3.50
2022-07-26T10:53:40.404Z,3.20
2022-07-26T10:54:41.047Z,5.30
2022-07-26T10:55:40.448Z,4.40
2022-07-26T10:56:40.398Z,5.20
2022-07-26T10:57:41.065Z,3.60
2022-07-26T10:58:40.388Z,7.50
2022-07-26T10:59:55.314Z,2.70
2022-07-26T11:00:42.350Z,5.00
2022-07-26T11:01:40.396Z,3.90
2022-07-26T11:02:41.420Z,5.10
2022-07-26T11:03:40.326Z,3.70
2022-07-26T11:04:40.342Z,3.90
2022-07-26T11:05:40.339Z,4.40
2022-07-26T11:06:40.411Z,3.90
2022-07-26T11:07:40.309Z,6.50
2022-07-26T11:08:44.570Z,3.40
2022-07-26T11:09:41.598Z,5.00
2022-07-26T11:10:40.278Z,3.40
2022-07-26T11:11:46.804Z,3.30
2022-07-26T11:12:41.329Z,3.30
2022-07-26T11:14:12.738Z,4.20
2022-07-26T11:15:12.187Z,3.50
2022-07-26T11:15:40.264Z,5.10
2022-07-26T11:16:41.047Z,6.30
2022-07-26T11:17:40.452Z,5.70
2022-07-26T11:18:40.189Z,3.70
2022-07-26T11:19:40.197Z,5.70
2022-07-26T11:20:40.195Z,4.40
2022-07-26T11:21:40.163Z,5.50
2022-07-26T11:22:40.199Z,6.30
2022-07-26T11:23:40.147Z,4.80
2022-07-26T11:24:40.156Z,4.90
2022-07-26T11:25:40.161Z,3.50
2022-07-26T11:26:40.124Z,4.80
2022-07-26T11:27:40.696Z,5.00
2022-07-26T11:28:40.142Z,5.90
2022-07-26T11:29:41.044Z,4.30
2022-07-26T11:30:40.146Z,4.10
2022-07-26T11:31:51.389Z,6.80
2022-07-26T11:32:41.175Z,5.10
2022-07-26T11:33:40.231Z,6.70
2022-07-26T11:34:40.219Z,6.60
2022-07-26T11:35:40.078Z,5.30
2022-07-26T11:36:40.108Z,4.90
2022-07-26T11:37:40.080Z,6.00
2022-07-26T11:38:40.054Z,7.20
2022-07-26T11:39:40.059Z,6.10
2022-07-26T11:40:40.058Z,5.90
2022-07-26T11:41:40.036Z,8.00
2022-07-26T11:42:40.026Z,7.30
2022-07-26T11:43:40.242Z,13.70
2022-07-26T11:44:40.050Z,7.00
2022-07-26T11:45:39.979Z,7.00
2022-07-26T11:46:40.026Z,6.00
2022-07-26T11:47:39.980Z,8.60
2022-07-26T11:48:39.989Z,6.70
2022-07-26T11:50:41.969Z,6.30
2022-07-26T11:51:39.983Z,5.50
2022-07-26T11:52:39.917Z,4.40
2022-07-26T11:53:40.006Z,8.60
2022-07-26T11:54:39.952Z,7.80
2022-07-26T11:55:42.874Z,8.70
2022-07-26T11:56:41.918Z,6.20
2022-07-26T11:57:39.905Z,7.20
2022-07-26T11:58:39.879Z,10.80
2022-07-26T11:59:39.880Z,7.10
2022-07-26T12:00:39.880Z,6.20
2022-07-26T12:01:39.875Z,5.60
2022-07-26T12:02:40.937Z,5.80
2022-07-26T12:03:39.944Z,4.70
2022-07-26T12:04:39.938Z,5.60
2022-07-26T12:05:39.951Z,6.30
2022-07-26T12:06:39.828Z,5.90
2022-07-26T12:07:39.846Z,7.30
2022-07-26T12:08:39.843Z,7.50
2022-07-26T12:09:39.809Z,7.50
2022-07-26T12:10:39.843Z,6.00
2022-07-26T12:11:39.820Z,6.60
2022-07-26T12:12:39.765Z,6.50
2022-07-26T12:13:55.608Z,5.50
2022-07-26T12:14:40.830Z,5.00
2022-07-26T12:15:39.823Z,6.50
2022-07-26T12:16:40.693Z,6.30
2022-07-26T12:17:39.755Z,5.80
2022-07-26T12:18:39.856Z,8.30
2022-07-26T12:19:39.713Z,8.10
2022-07-26T12:20:39.815Z,9.50
2022-07-26T12:21:39.710Z,6.50
2022-07-26T12:22:40.238Z,8.80
2022-07-26T12:23:39.743Z,7.90
2022-07-26T12:24:39.708Z,6.80
2022-07-26T12:25:44.984Z,5.50
2022-07-26T12:26:40.724Z,10.90
2022-07-26T12:27:39.669Z,7.30
2022-07-26T12:28:39.672Z,7.20
2022-07-26T12:29:39.677Z,6.30
2022-07-26T12:30:39.665Z,5.90
2022-07-26T12:31:39.768Z,7.20
2022-07-26T12:32:39.621Z,9.30
2022-07-26T12:33:39.629Z,7.90
2022-07-26T12:34:39.773Z,10.20
2022-07-26T12:35:39.654Z,12.70
2022-07-26T12:36:39.581Z,8.60
2022-07-26T12:37:40.842Z,7.80
2022-07-26T12:38:40.581Z,6.70
2022-07-26T12:39:39.592Z,6.80
2022-07-26T12:40:39.604Z,9.50
2022-07-26T12:41:39.613Z,9.00
2022-07-26T12:42:39.583Z,8.50
2022-07-26T12:43:39.607Z,6.30
2022-07-26T12:44:39.846Z,5.40
2022-07-26T12:45:39.591Z,5.70
2022-07-26T12:46:39.628Z,6.50
2022-07-26T12:47:39.517Z,5.70
2022-07-26T12:48:39.530Z,6.90
2022-07-26T12:49:39.550Z,9.10
2022-07-26T12:50:39.559Z,7.50
2022-07-26T12:51:39.478Z,7.70
2022-07-26T12:52:39.479Z,6.70
2022-07-26T12:53:40.288Z,8.10
2022-07-26T12:54:39.483Z,8.00
2022-07-26T12:55:39.472Z,6.90
2022-07-26T12:56:39.476Z,5.30
2022-07-26T12:57:45.997Z,5.40
2022-07-26T12:58:40.469Z,5.00
2022-07-26T12:59:44.631Z,6.30
2022-07-26T13:00:41.561Z,6.00
2022-07-26T13:01:39.457Z,8.80
2022-07-26T13:02:39.559Z,6.00
2022-07-26T13:03:39.377Z,7.00
2022-07-26T13:05:11.392Z,6.20
2022-07-26T13:06:11.808Z,5.70
2022-07-26T13:06:39.385Z,5.10
2022-07-26T13:07:40.191Z,5.60
2022-07-26T13:08:39.338Z,7.40
2022-07-26T13:09:40.359Z,6.10
2022-07-26T13:10:40.184Z,5.30
2022-07-26T13:11:39.346Z,8.20
2022-07-26T13:12:39.405Z,6.20
2022-07-26T13:13:39.299Z,5.60
2022-07-26T13:14:40.093Z,5.80
2022-07-26T13:15:39.314Z,7.40
2022-07-26T13:16:39.357Z,6.80
2022-07-26T13:17:39.341Z,6.10
2022-07-26T13:18:39.262Z,8.20
2022-07-26T13:19:39.444Z,5.90
2022-07-26T13:20:39.247Z,6.50
2022-07-26T13:21:40.265Z,5.80
2022-07-26T13:22:39.263Z,5.90
2022-07-26T13:23:39.259Z,5.40
2022-07-26T13:24:39.287Z,8.10
2022-07-26T13:25:40.326Z,8.60
2022-07-26T13:26:39.255Z,5.00
2022-07-26T13:27:44.303Z,5.50
2022-07-26T13:28:41.210Z,5.20
2022-07-26T13:29:39.227Z,6.30
2022-07-26T13:30:39.875Z,7.60
2022-07-26T13:31:39.277Z,7.80
2022-07-26T13:32:39.222Z,6.40
2022-07-26T13:33:39.225Z,8.70
2022-07-26T13:34:39.289Z,6.20
2022-07-26T13:35:39.125Z,5.00
2022-07-26T13:36:40.029Z,6.90
2022-07-26T13:37:39.779Z,5.70
2022-07-26T13:38:39.150Z,5.80
2022-07-26T13:39:39.222Z,5.60
2022-07-26T13:40:39.784Z,5.30
2022-07-26T13:41:39.167Z,5.70
2022-07-26T13:42:39.270Z,6.10
2022-07-26T13:43:39.218Z,5.80
2022-07-26T13:44:39.188Z,5.90
2022-07-26T13:45:39.159Z,7.00